createdAt,value
2023-12-30T00:01:00.529Z,14.97
2023-12-30T00:03:29.085Z,15.17
2023-12-30T00:05:57.595Z,14.77
2023-12-30T00:08:27.536Z,14.90
2023-12-30T00:10:56.129Z,15.93
2023-12-30T00:13:24.614Z,15.90
2023-12-30T00:15:53.486Z,15.97
2023-12-30T00:18:21.948Z,16.80
2023-12-30T00:20:50.463Z,16.10
2023-12-30T00:23:19.355Z,17.13
2023-12-30T00:25:49.142Z,15.70
2023-12-30T00:28:17.775Z,15.83
2023-12-30T00:30:46.712Z,16.20
2023-12-30T00:33:15.396Z,15.23
2023-12-30T00:35:44.320Z,15.80
2023-12-30T00:38:14.283Z,15.20
2023-12-30T00:40:43.806Z,15.47
2023-12-30T00:43:13.705Z,15.37
2023-12-30T00:45:42.281Z,15.87
2023-12-30T00:48:10.965Z,16.30
2023-12-30T00:50:39.478Z,15.70
2023-12-30T00:53:07.853Z,15.37
2023-12-30T00:55:36.306Z,16.27
2023-12-30T00:58:05.086Z,15.33
2023-12-30T01:00:34.829Z,15.83
2023-12-30T01:03:03.569Z,15.43
2023-12-30T01:05:32.211Z,16.40
2023-12-30T01:08:00.645Z,15.50
2023-12-30T01:10:29.201Z,17.13
2023-12-30T01:12:57.961Z,17.23
2023-12-30T01:15:26.511Z,16.00
2023-12-30T01:17:57.057Z,16.53
2023-12-30T01:20:25.728Z,16.40
2023-12-30T01:22:54.191Z,15.53
2023-12-30T01:25:22.631Z,15.80
2023-12-30T01:27:51.227Z,16.17
2023-12-30T01:30:19.700Z,17.27
2023-12-30T01:32:48.171Z,16.30
2023-12-30T01:35:18.043Z,15.57
2023-12-30T01:37:46.499Z,16.47
2023-12-30T01:40:16.004Z,16.10
2023-12-30T01:42:44.509Z,17.40
2023-12-30T01:45:13.444Z,16.23
2023-12-30T01:47:42.152Z,16.20
2023-12-30T01:50:12.189Z,15.33
2023-12-30T01:52:42.201Z,15.43
2023-12-30T01:55:11.434Z,16.93
2023-12-30T01:57:40.879Z,15.83
2023-12-30T02:00:10.970Z,16.50
2023-12-30T02:05:46.663Z,16.80
2023-12-30T02:08:15.458Z,16.07
2023-12-30T02:10:44.147Z,15.57
2023-12-30T02:13:12.857Z,15.50
2023-12-30T02:15:41.482Z,16.60
2023-12-30T02:18:10.063Z,15.70
2023-12-30T02:20:38.746Z,16.80
2023-12-30T02:23:08.629Z,15.27
2023-12-30T02:25:37.161Z,15.70
2023-12-30T02:28:05.966Z,16.40
2023-12-30T02:30:34.445Z,16.20
2023-12-30T02:33:03.348Z,16.50
2023-12-30T02:35:32.676Z,16.23
2023-12-30T02:38:01.690Z,16.90
2023-12-30T02:40:31.577Z,15.43
2023-12-30T02:43:00.270Z,16.27
2023-12-30T02:45:28.975Z,16.40
2023-12-30T02:47:57.431Z,16.00
2023-12-30T02:50:26.854Z,15.97
2023-12-30T02:52:55.238Z,15.17
2023-12-30T02:55:23.724Z,16.10
2023-12-30T02:57:53.916Z,16.43
2023-12-30T03:00:22.425Z,16.90
2023-12-30T03:02:50.866Z,16.03
2023-12-30T03:05:19.507Z,15.57
2023-12-30T03:07:48.386Z,15.70
2023-12-30T03:10:17.299Z,16.00
2023-12-30T03:12:45.784Z,15.90
2023-12-30T03:15:16.816Z,16.33
2023-12-30T03:17:45.334Z,16.40
2023-12-30T03:20:14.415Z,16.13
2023-12-30T03:22:42.836Z,15.50
2023-12-30T03:25:11.465Z,15.63
2023-12-30T03:27:39.901Z,16.03
2023-12-30T03:30:09.446Z,17.37
2023-12-30T03:32:39.512Z,16.60
2023-12-30T03:35:08.754Z,16.50
2023-12-30T03:37:37.074Z,16.07
2023-12-30T03:40:06.318Z,15.70
2023-12-30T03:42:34.756Z,16.40
2023-12-30T03:45:04.066Z,15.60
2023-12-30T03:47:32.912Z,16.50
2023-12-30T03:50:03.141Z,17.07
2023-12-30T03:52:31.932Z,17.23
2023-12-30T03:55:00.448Z,17.27
2023-12-30T03:57:28.941Z,16.50
2023-12-30T03:59:57.395Z,15.63
2023-12-30T04:02:25.989Z,15.70
2023-12-30T04:04:55.745Z,15.77
2023-12-30T04:07:26.369Z,14.90
2023-12-30T04:09:55.060Z,15.60
2023-12-30T04:12:23.558Z,14.87
2023-12-30T04:14:52.744Z,14.87
2023-12-30T04:17:21.130Z,15.93
2023-12-30T04:19:49.562Z,16.23
2023-12-30T04:22:18.121Z,16.03
2023-12-30T04:24:48.364Z,16.13
2023-12-30T04:27:16.924Z,16.03
2023-12-30T04:29:45.331Z,16.37
2023-12-30T04:32:13.967Z,16.97
2023-12-30T04:34:42.635Z,16.10
2023-12-30T04:37:11.134Z,16.83
2023-12-30T04:39:39.551Z,16.57
2023-12-30T04:42:09.594Z,18.40
2023-12-30T04:44:38.592Z,16.67
2023-12-30T04:47:07.849Z,16.60
2023-12-30T04:49:36.535Z,16.93
2023-12-30T04:52:05.472Z,15.57
2023-12-30T04:54:34.338Z,16.10
2023-12-30T04:57:02.730Z,16.07
2023-12-30T04:59:32.560Z,15.67
2023-12-30T05:02:01.041Z,16.23
2023-12-30T05:04:29.636Z,16.03
2023-12-30T05:06:58.176Z,16.90
2023-12-30T05:09:26.620Z,16.47
2023-12-30T05:11:55.761Z,16.10
2023-12-30T05:14:24.113Z,16.47
2023-12-30T05:16:53.871Z,15.50
2023-12-30T05:19:22.273Z,16.43
2023-12-30T05:21:53.210Z,16.20
2023-12-30T05:24:22.715Z,16.60
2023-12-30T05:26:51.337Z,16.13
2023-12-30T05:29:20.516Z,16.10
2023-12-30T05:31:49.214Z,15.90
2023-12-30T05:34:19.196Z,16.67
2023-12-30T05:36:47.774Z,16.83
2023-12-30T05:39:16.710Z,16.40
2023-12-30T05:41:45.079Z,15.47
2023-12-30T05:44:13.691Z,16.10
2023-12-30T05:46:42.162Z,15.73
2023-12-30T05:49:10.682Z,16.33
2023-12-30T05:51:44.632Z,15.83
2023-12-30T05:54:13.173Z,18.07
2023-12-30T05:56:41.808Z,17.10
2023-12-30T05:59:10.261Z,17.50
2023-12-30T06:01:46.634Z,17.27
2023-12-30T06:04:15.365Z,15.90
2023-12-30T06:06:47.164Z,17.20
2023-12-30T06:09:15.568Z,17.37
2023-12-30T06:11:44.197Z,16.70
2023-12-30T06:14:12.936Z,15.90
2023-12-30T06:16:41.540Z,16.90
2023-12-30T06:19:10.517Z,19.73
2023-12-30T06:21:39.778Z,16.80
2023-12-30T06:24:09.687Z,16.30
2023-12-30T06:26:39.535Z,17.47
2023-12-30T06:29:09.143Z,17.37
2023-12-30T06:31:42.459Z,18.20
2023-12-30T06:34:12.159Z,17.33
2023-12-30T06:36:44.569Z,16.33
2023-12-30T06:39:16.182Z,16.63
2023-12-30T06:41:44.934Z,16.63
2023-12-30T06:44:13.718Z,16.77
2023-12-30T06:46:42.592Z,17.03
2023-12-30T06:49:11.367Z,17.33
2023-12-30T06:51:39.862Z,18.30
2023-12-30T06:54:08.793Z,16.57
2023-12-30T06:56:39.645Z,19.17
2023-12-30T06:59:08.201Z,18.70
2023-12-30T07:01:40.755Z,18.40
2023-12-30T07:04:09.430Z,18.50
2023-12-30T07:06:38.117Z,18.73
2023-12-30T07:09:06.762Z,18.63
2023-12-30T07:11:35.304Z,19.33
2023-12-30T07:14:05.003Z,19.00
2023-12-30T07:16:33.578Z,18.00
2023-12-30T07:19:02.282Z,18.10
2023-12-30T07:21:30.902Z,18.73
2023-12-30T07:23:59.405Z,18.53
2023-12-30T07:26:27.862Z,18.13
2023-12-30T07:28:56.331Z,16.77
2023-12-30T07:31:26.537Z,16.87
2023-12-30T07:33:55.256Z,16.97
2023-12-30T07:36:25.586Z,17.33
2023-12-30T07:38:54.078Z,19.17
2023-12-30T07:41:22.447Z,17.50
2023-12-30T07:43:51.193Z,17.43
2023-12-30T07:46:19.703Z,17.73
2023-12-30T07:48:49.519Z,15.73
2023-12-30T07:51:17.940Z,17.87
2023-12-30T07:53:46.336Z,17.23
2023-12-30T07:56:14.718Z,17.90
2023-12-30T07:58:43.166Z,17.33
2023-12-30T08:01:11.819Z,15.57
2023-12-30T08:03:40.323Z,16.53
2023-12-30T08:06:10.264Z,14.77
2023-12-30T08:08:38.821Z,15.53
2023-12-30T08:11:07.315Z,16.07
2023-12-30T08:13:35.970Z,15.53
2023-12-30T08:16:04.608Z,15.00
2023-12-30T08:18:33.392Z,14.97
2023-12-30T08:21:02.435Z,14.53
2023-12-30T08:23:32.188Z,14.10
2023-12-30T08:26:00.699Z,14.57
2023-12-30T08:28:29.182Z,14.77
2023-12-30T08:30:58.732Z,14.00
2023-12-30T08:33:27.553Z,14.43
2023-12-30T08:35:56.107Z,14.43
2023-12-30T08:38:24.613Z,14.80
2023-12-30T08:40:54.359Z,15.67
2023-12-30T08:43:22.869Z,14.67
2023-12-30T08:45:51.478Z,14.43
2023-12-30T08:48:20.021Z,12.40
2023-12-30T08:50:49.664Z,11.40
2023-12-30T08:53:19.606Z,12.77
2023-12-30T08:55:48.060Z,12.83
2023-12-30T08:58:17.775Z,13.90
2023-12-30T09:00:46.426Z,14.30
2023-12-30T09:03:15.845Z,12.93
2023-12-30T09:05:45.890Z,15.17
2023-12-30T09:08:14.376Z,13.43
2023-12-30T09:10:42.901Z,17.47
2023-12-30T09:13:11.957Z,14.50
2023-12-30T09:15:41.872Z,12.57
2023-12-30T09:18:14.870Z,13.63
2023-12-30T09:20:44.630Z,12.90
2023-12-30T09:23:13.544Z,12.60
2023-12-30T09:25:41.970Z,11.70
2023-12-30T09:28:10.487Z,13.70
2023-12-30T09:30:38.941Z,14.00
2023-12-30T09:33:11.948Z,12.63
2023-12-30T09:35:41.220Z,13.03
2023-12-30T09:38:09.893Z,14.70
2023-12-30T09:40:38.464Z,14.40
2023-12-30T09:43:08.036Z,16.80
2023-12-30T09:45:39.544Z,15.10
2023-12-30T09:48:11.399Z,12.80
2023-12-30T09:50:39.973Z,12.10
2023-12-30T09:53:08.789Z,12.93
2023-12-30T09:55:37.285Z,13.33
2023-12-30T09:58:07.329Z,13.03
2023-12-30T10:00:40.063Z,10.40
2023-12-30T10:03:10.326Z,10.60
2023-12-30T10:05:39.054Z,11.57
2023-12-30T10:08:08.755Z,13.37
2023-12-30T10:10:44.756Z,13.77
2023-12-30T10:13:14.590Z,15.70
2023-12-30T10:15:44.395Z,13.87
2023-12-30T10:18:15.537Z,13.77
2023-12-30T10:20:46.054Z,12.53
2023-12-30T10:23:15.392Z,13.13
2023-12-30T10:25:44.007Z,13.43
2023-12-30T10:28:13.125Z,12.20
2023-12-30T10:30:41.762Z,11.13
2023-12-30T10:33:11.864Z,12.03
2023-12-30T10:35:43.206Z,12.67
2023-12-30T10:38:12.393Z,11.73
2023-12-30T10:40:42.414Z,11.57
2023-12-30T10:43:11.276Z,11.50
2023-12-30T10:45:39.799Z,12.10
2023-12-30T10:48:09.714Z,11.57
2023-12-30T10:50:41.265Z,12.47
2023-12-30T10:53:13.393Z,12.27
2023-12-30T10:55:50.144Z,12.00
2023-12-30T10:58:21.241Z,11.10
2023-12-30T11:00:55.407Z,12.20
2023-12-30T11:03:24.883Z,13.07
2023-12-30T11:06:03.999Z,11.17
2023-12-30T11:08:32.606Z,12.50
2023-12-30T11:11:03.330Z,12.30
2023-12-30T11:13:37.050Z,12.67
2023-12-30T11:16:16.580Z,12.83
2023-12-30T11:18:50.870Z,11.70
2023-12-30T11:24:14.219Z,10.40
2023-12-30T11:26:46.684Z,10.10
2023-12-30T11:29:18.419Z,10.00
2023-12-30T11:31:48.047Z,10.80
2023-12-30T11:34:17.350Z,10.77
2023-12-30T11:36:48.075Z,11.33
2023-12-30T11:39:25.874Z,11.40
2023-12-30T11:41:54.919Z,11.30
2023-12-30T11:44:25.145Z,11.53
2023-12-30T11:46:53.641Z,11.97
2023-12-30T11:49:24.188Z,12.30
2023-12-30T11:51:55.192Z,10.77
2023-12-30T11:54:25.205Z,11.70
2023-12-30T11:56:53.700Z,11.43
2023-12-30T11:59:22.161Z,11.60
2023-12-30T12:01:50.808Z,11.40
2023-12-30T12:04:19.255Z,10.93
2023-12-30T12:06:54.185Z,12.10
2023-12-30T12:09:24.511Z,11.90
2023-12-30T12:11:53.258Z,11.83
2023-12-30T12:14:22.205Z,12.43
2023-12-30T12:16:50.606Z,11.80
2023-12-30T12:19:19.863Z,11.13
2023-12-30T12:21:48.390Z,11.47
2023-12-30T12:24:17.392Z,11.87
2023-12-30T12:26:47.156Z,11.50
2023-12-30T12:29:18.101Z,11.57
2023-12-30T12:31:47.924Z,10.87
2023-12-30T12:34:23.104Z,11.20
2023-12-30T12:36:51.997Z,11.50
2023-12-30T12:39:20.576Z,12.63
2023-12-30T12:41:50.432Z,10.83
2023-12-30T12:44:18.795Z,11.97
2023-12-30T12:46:47.230Z,10.77
2023-12-30T12:49:19.268Z,11.73
2023-12-30T12:51:47.845Z,11.60
2023-12-30T12:54:16.462Z,11.73
2023-12-30T12:56:45.145Z,10.47
2023-12-30T12:59:14.964Z,11.43
2023-12-30T13:01:44.064Z,11.57
2023-12-30T13:04:14.491Z,11.07
2023-12-30T13:06:44.175Z,11.63
2023-12-30T13:09:31.532Z,10.93
2023-12-30T13:12:00.793Z,10.70
2023-12-30T13:14:31.552Z,11.53
2023-12-30T13:17:01.972Z,10.57
2023-12-30T13:19:30.495Z,11.53
2023-12-30T13:21:58.973Z,10.67
2023-12-30T13:24:27.398Z,9.53
2023-12-30T13:26:56.231Z,10.27
2023-12-30T13:29:24.797Z,10.93
2023-12-30T13:31:55.918Z,10.70
2023-12-30T13:34:24.641Z,10.30
2023-12-30T13:36:58.068Z,10.80
2023-12-30T13:39:27.930Z,10.93
2023-12-30T13:41:57.395Z,12.27
2023-12-30T13:44:25.833Z,10.37
2023-12-30T13:47:10.062Z,11.47
2023-12-30T13:49:52.464Z,10.70
2023-12-30T13:52:21.196Z,10.70
2023-12-30T13:54:49.703Z,9.70
2023-12-30T13:57:24.975Z,9.53
2023-12-30T13:59:54.505Z,11.20
2023-12-30T14:02:25.687Z,11.73
2023-12-30T14:04:58.267Z,11.23
2023-12-30T14:07:29.032Z,11.27
2023-12-30T14:10:01.890Z,10.80
2023-12-30T14:12:30.787Z,10.60
2023-12-30T14:15:07.303Z,11.53
2023-12-30T14:17:37.238Z,10.60
2023-12-30T14:20:06.599Z,10.80
2023-12-30T14:22:35.793Z,11.97
2023-12-30T14:25:05.783Z,10.97
2023-12-30T14:27:37.086Z,11.40
2023-12-30T14:30:07.574Z,11.00
2023-12-30T14:32:37.582Z,11.33
2023-12-30T14:35:07.578Z,10.77
2023-12-30T14:37:36.236Z,11.57
2023-12-30T14:40:07.757Z,11.13
2023-12-30T14:42:36.358Z,10.70
2023-12-30T14:45:07.446Z,10.83
2023-12-30T14:47:39.755Z,9.97
2023-12-30T14:50:09.573Z,10.73
2023-12-30T14:52:39.092Z,10.63
2023-12-30T14:55:10.155Z,10.57
2023-12-30T14:57:40.668Z,10.67
2023-12-30T15:00:14.593Z,9.23
2023-12-30T15:02:45.733Z,9.83
2023-12-30T15:05:16.379Z,9.90
2023-12-30T15:07:46.181Z,9.17
2023-12-30T15:10:16.522Z,9.23
2023-12-30T15:12:47.739Z,9.00
2023-12-30T15:15:17.108Z,10.63
2023-12-30T15:17:47.102Z,9.67
2023-12-30T15:20:18.546Z,10.30
2023-12-30T15:22:47.329Z,10.70
2023-12-30T15:25:16.660Z,10.77
2023-12-30T15:27:46.530Z,10.77
2023-12-30T15:30:15.365Z,9.40
2023-12-30T15:32:44.169Z,10.10
2023-12-30T15:35:13.964Z,9.53
2023-12-30T15:37:44.864Z,9.67
2023-12-30T15:40:14.174Z,9.00
2023-12-30T15:42:42.815Z,8.90
2023-12-30T15:45:11.814Z,9.27
2023-12-30T15:47:40.846Z,8.53
2023-12-30T15:50:09.826Z,9.10
2023-12-30T15:52:39.646Z,9.30
2023-12-30T15:55:08.538Z,9.30
2023-12-30T15:57:37.362Z,9.10
2023-12-30T16:00:09.676Z,10.70
2023-12-30T16:02:38.345Z,9.50
2023-12-30T16:05:07.170Z,8.70
2023-12-30T16:07:35.816Z,8.33
2023-12-30T16:10:06.597Z,9.73
2023-12-30T16:12:35.078Z,9.63
2023-12-30T16:15:03.708Z,9.63
2023-12-30T16:17:32.307Z,9.50
2023-12-30T16:20:01.537Z,9.53
2023-12-30T16:22:30.077Z,10.17
2023-12-30T16:24:59.117Z,9.87
2023-12-30T16:27:29.028Z,9.73
2023-12-30T16:29:57.611Z,10.07
2023-12-30T16:32:26.391Z,9.67
2023-12-30T16:34:55.848Z,9.80
2023-12-30T16:37:24.981Z,8.57
2023-12-30T16:39:53.910Z,9.10
2023-12-30T16:42:23.045Z,9.90
2023-12-30T16:44:53.341Z,9.70
2023-12-30T16:47:21.992Z,9.40
2023-12-30T16:49:50.536Z,9.37
2023-12-30T16:52:20.589Z,10.20
2023-12-30T16:54:49.912Z,11.03
2023-12-30T16:57:19.418Z,10.60
2023-12-30T16:59:49.001Z,9.87
2023-12-30T17:02:18.801Z,9.80
2023-12-30T17:04:47.504Z,9.70
2023-12-30T17:07:16.023Z,9.37
2023-12-30T17:09:44.530Z,16.03
2023-12-30T17:12:13.113Z,9.30
2023-12-30T17:14:41.431Z,9.03
2023-12-30T17:17:09.984Z,9.83
2023-12-30T17:19:39.909Z,9.83
2023-12-30T17:22:08.432Z,10.20
2023-12-30T17:24:36.855Z,9.80
2023-12-30T17:27:06.453Z,8.87
2023-12-30T17:29:35.070Z,9.67
2023-12-30T17:32:03.598Z,9.83
2023-12-30T17:34:35.093Z,9.53
2023-12-30T17:37:05.340Z,9.80
2023-12-30T17:39:33.831Z,9.87
2023-12-30T17:42:02.532Z,9.40
2023-12-30T17:44:31.148Z,9.87
2023-12-30T17:46:59.123Z,9.80
2023-12-30T17:49:27.825Z,10.13
2023-12-30T17:51:56.357Z,8.80
2023-12-30T17:54:26.161Z,9.30
2023-12-30T17:56:54.812Z,9.10
2023-12-30T17:59:23.575Z,10.37
2023-12-30T18:01:52.512Z,9.97
2023-12-30T18:04:21.028Z,10.20
2023-12-30T18:06:49.484Z,9.60
2023-12-30T18:09:17.955Z,9.73
2023-12-30T18:11:48.092Z,9.60
2023-12-30T18:14:18.885Z,10.07
2023-12-30T18:16:47.343Z,10.57
2023-12-30T18:19:16.752Z,10.10
2023-12-30T18:21:46.180Z,9.13
2023-12-30T18:24:15.091Z,11.77
2023-12-30T18:26:43.763Z,9.80
2023-12-30T18:29:13.555Z,10.57
2023-12-30T18:31:42.543Z,10.70
2023-12-30T18:34:11.181Z,9.83
2023-12-30T18:36:39.852Z,10.60
2023-12-30T18:39:08.897Z,9.10
2023-12-30T18:41:37.433Z,9.63
2023-12-30T18:44:06.189Z,9.87
2023-12-30T18:46:36.074Z,9.20
2023-12-30T18:49:04.753Z,9.47
2023-12-30T18:51:33.203Z,10.00
2023-12-30T18:54:01.712Z,9.43
2023-12-30T18:56:31.350Z,9.40
2023-12-30T18:58:59.814Z,9.53
2023-12-30T19:01:28.394Z,9.63
2023-12-30T19:04:00.978Z,9.23
2023-12-30T19:06:29.958Z,8.90
2023-12-30T19:08:58.384Z,8.97
2023-12-30T19:11:26.924Z,9.73
2023-12-30T19:13:55.415Z,10.37
2023-12-30T19:16:24.309Z,9.37
2023-12-30T19:18:52.958Z,9.43
2023-12-30T19:21:22.771Z,10.07
2023-12-30T19:23:51.209Z,10.60
2023-12-30T19:26:19.853Z,9.73
2023-12-30T19:28:48.635Z,9.97
2023-12-30T19:31:17.062Z,9.60
2023-12-30T19:33:45.985Z,9.97
2023-12-30T19:36:15.055Z,9.70
2023-12-30T19:38:45.312Z,9.70
2023-12-30T19:41:14.426Z,9.97
2023-12-30T19:43:42.883Z,10.50
2023-12-30T19:46:11.557Z,10.23
2023-12-30T19:48:40.186Z,10.43
2023-12-30T19:51:08.846Z,10.80
2023-12-30T19:53:37.184Z,10.47
2023-12-30T19:56:07.642Z,10.30
2023-12-30T19:58:36.089Z,11.50
2023-12-30T20:01:04.896Z,10.83
2023-12-30T20:03:33.462Z,10.80
2023-12-30T20:06:02.138Z,11.10
2023-12-30T20:08:30.574Z,10.63
2023-12-30T20:11:00.296Z,11.07
2023-12-30T20:13:30.120Z,10.73
2023-12-30T20:15:58.558Z,12.20
2023-12-30T20:18:27.904Z,11.83
2023-12-30T20:20:56.358Z,12.27
2023-12-30T20:23:24.908Z,12.90
2023-12-30T20:25:53.633Z,12.37
2023-12-30T20:28:22.157Z,12.33
2023-12-30T20:30:51.965Z,11.80
2023-12-30T20:33:21.210Z,12.10
2023-12-30T20:35:49.773Z,12.00
2023-12-30T20:38:19.129Z,11.93
2023-12-30T20:40:47.618Z,12.20
2023-12-30T20:43:16.077Z,12.20
2023-12-30T20:45:48.440Z,13.03
2023-12-30T20:48:18.330Z,12.20
2023-12-30T20:50:46.774Z,12.50
2023-12-30T20:53:17.282Z,12.63
2023-12-30T20:55:45.827Z,11.67
2023-12-30T20:58:14.289Z,11.43
2023-12-30T21:00:42.829Z,11.00
2023-12-30T21:03:11.282Z,11.30
2023-12-30T21:05:42.394Z,11.80
2023-12-30T21:08:11.051Z,11.70
2023-12-30T21:10:39.617Z,11.73
2023-12-30T21:13:08.085Z,11.30
2023-12-30T21:15:36.558Z,11.17
2023-12-30T21:18:05.351Z,11.47
2023-12-30T21:20:33.892Z,11.60
2023-12-30T21:23:04.338Z,10.80
2023-12-30T21:25:33.007Z,11.80
2023-12-30T21:28:01.482Z,11.90
2023-12-30T21:30:29.932Z,11.63
2023-12-30T21:32:58.476Z,10.83
2023-12-30T21:35:27.055Z,10.83
2023-12-30T21:37:55.560Z,11.27
2023-12-30T21:40:28.178Z,11.17
2023-12-30T21:42:56.723Z,11.50
2023-12-30T21:45:25.151Z,11.33
2023-12-30T21:47:53.586Z,10.70
2023-12-30T21:50:22.134Z,11.33
2023-12-30T21:52:52.135Z,11.50
2023-12-30T21:55:20.999Z,11.10
2023-12-30T21:57:50.868Z,11.67
2023-12-30T22:00:19.749Z,11.00
2023-12-30T22:02:48.740Z,11.20
2023-12-30T22:05:20.515Z,11.40
2023-12-30T22:07:49.027Z,11.80
2023-12-30T22:10:17.790Z,11.90
2023-12-30T22:12:46.192Z,11.83
2023-12-30T22:15:17.031Z,11.93
2023-12-30T22:17:45.536Z,11.57
2023-12-30T22:20:14.083Z,11.53
2023-12-30T22:22:42.746Z,11.40
2023-12-30T22:25:12.632Z,11.70
2023-12-30T22:27:41.089Z,11.50
2023-12-30T22:30:10.144Z,12.20
2023-12-30T22:32:41.624Z,11.20
2023-12-30T22:35:14.665Z,12.30
2023-12-30T22:37:44.153Z,12.13
2023-12-30T22:40:13.344Z,11.83
2023-12-30T22:42:41.901Z,11.37
2023-12-30T22:45:10.905Z,11.90
2023-12-30T22:47:40.646Z,12.60
2023-12-30T22:50:09.884Z,11.90
2023-12-30T22:52:38.847Z,11.33
2023-12-30T22:55:08.015Z,12.03
2023-12-30T22:57:36.489Z,12.83
2023-12-30T23:00:06.630Z,11.93
2023-12-30T23:02:35.043Z,11.53
2023-12-30T23:05:05.051Z,11.77
2023-12-30T23:07:33.501Z,12.93
2023-12-30T23:10:02.176Z,13.10
2023-12-30T23:12:30.605Z,12.47
2023-12-30T23:14:59.024Z,12.73
2023-12-30T23:17:27.586Z,12.37
2023-12-30T23:19:56.063Z,11.90
2023-12-30T23:22:25.970Z,12.13
2023-12-30T23:24:54.440Z,11.63
2023-12-30T23:27:24.291Z,11.63
2023-12-30T23:29:52.932Z,12.70
2023-12-30T23:32:21.466Z,11.53
2023-12-30T23:34:51.380Z,12.00
2023-12-30T23:37:20.820Z,11.20
2023-12-30T23:39:50.590Z,12.10
2023-12-30T23:42:20.533Z,12.10
2023-12-30T23:44:48.939Z,12.27
2023-12-30T23:47:17.352Z,11.70
2023-12-30T23:49:45.937Z,12.03
2023-12-30T23:52:14.342Z,11.50
2023-12-30T23:54:42.710Z,11.77
2023-12-30T23:57:12.437Z,11.90
2023-12-30T23:59:41.132Z,11.97
